Red Cedar — V7EH4 — position and weather

sailwx.info

Track history (hours):
 
Tides and Currents Weather Stations Pressure Air Temp Water Temp Dewpoint Dewpoint Depression Visibility Wind Speed Wind Dir Waves Ship Positions

Red Cedar

Last reported at 2018-Jul-14 11:52 UTC. Time now 2018-Jul-22 14:19 UTC.
Position S 33°35' E 018°04'.
Warning: this ship's position is 8 days out of date.

Length 193 m; draft 10.4 m.

Type: Ship (hazmat cat D). MMSI: 538090070.

Date/timePositionNaut miles runAvg speedWind from/ knotsBaromVisibWave heightAir tempDewpointWater temp
2018-Jul-14 11:52S 33°35' E 018°04'512.4
2018-Jul-14 11:29S 33°38' E 018°08'912.3
2018-Jul-14 10:47S 33°45' E 018°14'412.3
2018-Jul-14 10:29S 33°48' E 018°17'611.7
2018-Jul-14 10:00S 33°51' E 018°22'4 8.8
2018-Jul-14 09:30S 33°54' E 018°26'1 1.8
2018-Jul-14 09:00S 33°55' E 018°26'0 0.0
2018-Jul-14 08:30S 33°55' E 018°26'0 0.0
2018-Jul-14 08:00S 33°55' E 018°26'0 0.0
2018-Jul-14 07:30S 33°55' E 018°26'0 0.0
2018-Jul-14 07:00S 33°55' E 018°26'0 0.0
2018-Jul-14 06:30S 33°55' E 018°26'0 0.0
2018-Jul-14 06:00S 33°55' E 018°26'0 0.0
2018-Jul-14 05:30S 33°55' E 018°26'0 0.0
2018-Jul-14 05:00S 33°55' E 018°26'0 0.0
2018-Jul-14 04:30S 33°55' E 018°26'0 0.0
2018-Jul-14 04:00S 33°55' E 018°26'0 0.0
2018-Jul-14 03:30S 33°55' E 018°26'0 0.0
2018-Jul-14 03:00S 33°55' E 018°26'0 0.0
2018-Jul-14 02:30S 33°55' E 018°26'0 0.0
2018-Jul-14 02:00S 33°55' E 018°26'0 0.0
2018-Jul-14 01:30S 33°55' E 018°26'0 0.0
2018-Jul-14 01:00S 33°55' E 018°26'0 0.0
2018-Jul-14 00:30S 33°55' E 018°26'0 0.0
2018-Jul-14 00:00S 33°55' E 018°26'0 0.0
2018-Jul-13 23:30S 33°55' E 018°26'0 0.0
2018-Jul-13 23:00S 33°55' E 018°26'0 0.0
2018-Jul-13 22:30S 33°55' E 018°26'0 0.0
2018-Jul-13 22:00S 33°55' E 018°26'0 0.0
2018-Jul-13 21:27S 33°55' E 018°26'0 0.0
2018-Jul-13 21:00S 33°55' E 018°26'0 0.0
2018-Jul-13 20:30S 33°55' E 018°26'0 0.0
2018-Jul-13 20:00S 33°55' E 018°26'0 0.0
2018-Jul-13 19:30S 33°55' E 018°26'0 0.0
2018-Jul-13 19:00S 33°55' E 018°26'0 0.0
2018-Jul-13 18:30S 33°55' E 018°26'0 0.0
2018-Jul-13 18:00S 33°55' E 018°26'0 0.0
2018-Jul-13 17:30S 33°55' E 018°26'0 0.0
2018-Jul-13 17:00S 33°55' E 018°26'0 0.0
2018-Jul-13 16:29S 33°55' E 018°26'1 1.7
2018-Jul-13 16:00S 33°54' E 018°26'2 3.7
2018-Jul-13 15:30S 33°53' E 018°25'2 4.2
2018-Jul-13 15:00S 33°51' E 018°25'0 0.1
2018-Jul-13 14:00S 33°51' E 018°25'0 0.0
2018-Jul-13 13:30S 33°51' E 018°25'0 0.1
2018-Jul-13 13:00S 33°51' E 018°25'0 0.0
2018-Jul-13 12:30S 33°51' E 018°25'0 0.1
2018-Jul-13 12:00S 33°51' E 018°25'0 0.0
2018-Jul-13 11:30S 33°51' E 018°25'0 0.0
2018-Jul-13 11:00S 33°51' E 018°25'0 0.0
2018-Jul-13 10:30S 33°51' E 018°25'0 0.0
2018-Jul-13 10:00S 33°51' E 018°25'0 0.0
2018-Jul-13 09:30S 33°51' E 018°25'0 0.1
2018-Jul-13 09:00S 33°51' E 018°25'0 0.0
2018-Jul-13 08:30S 33°51' E 018°25'0 0.0
2018-Jul-13 08:00S 33°51' E 018°25'0 0.0
2018-Jul-13 07:31S 33°51' E 018°25'0 0.0
2018-Jul-13 07:00S 33°51' E 018°25'0 0.0
2018-Jul-13 06:30S 33°51' E 018°25'0 0.0
2018-Jul-13 06:00S 33°51' E 018°25'0 0.0
2018-Jul-13 05:30S 33°51' E 018°25'0 0.0
2018-Jul-13 05:00S 33°51' E 018°25'0 0.1
2018-Jul-13 04:30S 33°51' E 018°25'1 1.4
2018-Jul-13 04:00S 33°51' E 018°25'8 8.9
2018-Jul-13 03:04S 33°57' E 018°18'110.7
2018-Jul-13 02:56S 33°58' E 018°17'410.3
2018-Jul-13 02:30S 34°02' E 018°15'5 9.9
2018-Jul-13 02:00S 34°07' E 018°14'510.0
2018-Jul-13 01:30S 34°12' E 018°14'510.6
2018-Jul-13 01:01S 34°18' E 018°14'710.7
2018-Jul-13 00:24S 34°24' E 018°17'4 9.9
2018-Jul-13 00:00S 34°27' E 018°20'5 9.1
2018-Jul-12 23:29S 34°28' E 018°25'5 9.2
2018-Jul-12 22:59S 34°32' E 018°29'5 9.3
2018-Jul-12 22:29S 34°35' E 018°34'4 9.3
2018-Jul-12 22:00S 34°37' E 018°38'5 8.9
2018-Jul-12 21:30S 34°38' E 018°43'5 8.8
2018-Jul-12 20:58S 34°40' E 018°49'5 8.9
2018-Jul-12 20:22S 34°42' E 018°55'  
2018-Jul-10 11:37S 30°12' E 030°58'1 8.6
2018-Jul-10 11:30S 30°12' E 030°60'2 4.3
2018-Jul-10 11:01S 30°10' E 030°60'714.2
2018-Jul-10 10:30S 30°04' E 031°03'714.7
2018-Jul-10 10:01S 29°57' E 031°07'611.9
2018-Jul-10 09:29S 29°51' E 031°06'3 6.4
2018-Jul-10 09:00S 29°53' E 031°02'0 0.5
2018-Jul-10 08:30S 29°52' E 031°02'0 0.0
2018-Jul-10 07:31S 29°52' E 031°02'0 0.0
2018-Jul-10 07:30S 29°52' E 031°02'0 0.0
2018-Jul-10 06:58S 29°52' E 031°02'0 0.0
2018-Jul-10 06:30S 29°52' E 031°02'0 0.0
2018-Jul-10 06:00S 29°52' E 031°02'0 0.0
2018-Jul-10 05:30S 29°52' E 031°02'0 0.0
2018-Jul-10 05:01S 29°52' E 031°02'0 0.0
2018-Jul-10 04:28S 29°52' E 031°02'0 0.0
2018-Jul-10 04:00S 29°52' E 031°02'0 0.0
2018-Jul-10 03:30S 29°52' E 031°02'0 0.0
2018-Jul-10 03:00S 29°52' E 031°02'0 0.0
2018-Jul-10 02:30S 29°52' E 031°02'0 0.0
2018-Jul-10 02:00S 29°52' E 031°02'0 0.0
2018-Jul-10 01:30S 29°52' E 031°02'0 0.0
2018-Jul-10 00:58S 29°52' E 031°02'0 0.0
2018-Jul-10 00:30S 29°52' E 031°02'0 0.0
2018-Jul-10 00:01S 29°52' E 031°02'0 0.0
2018-Jul-09 23:30S 29°52' E 031°02'0 0.0
2018-Jul-09 22:58S 29°52' E 031°02'0 0.0
2018-Jul-09 22:30S 29°52' E 031°02'0 0.0
2018-Jul-09 22:00S 29°52' E 031°02'0 0.0
2018-Jul-09 21:30S 29°52' E 031°02'0 0.0
2018-Jul-09 21:01S 29°52' E 031°02'0 0.0
2018-Jul-09 20:29S 29°52' E 031°02'0 0.0
2018-Jul-09 20:00S 29°52' E 031°02'0 0.0
2018-Jul-09 19:30S 29°52' E 031°02'0 0.0
2018-Jul-09 19:00S 29°52' E 031°02'0 0.0
2018-Jul-09 18:30S 29°52' E 031°02'0 0.0
2018-Jul-09 18:00S 29°52' E 031°02'0 0.0
2018-Jul-09 17:30S 29°52' E 031°02'0 0.0
2018-Jul-09 17:00S 29°52' E 031°02'0 0.0
2018-Jul-09 16:30S 29°52' E 031°02'0 0.0
2018-Jul-09 16:01S 29°52' E 031°02'0 0.0
2018-Jul-09 15:30S 29°52' E 031°02'0 0.0
2018-Jul-09 14:59S 29°52' E 031°02'0 0.0
2018-Jul-09 14:30S 29°52' E 031°02'0 0.0
2018-Jul-09 14:00S 29°52' E 031°02'0 0.0
2018-Jul-09 13:30S 29°52' E 031°02'0 0.0
2018-Jul-09 13:00S 29°52' E 031°02'0 0.0
2018-Jul-09 12:30S 29°52' E 031°02'0 0.0
2018-Jul-09 12:00S 29°52' E 031°02'0 0.0
2018-Jul-09 11:30S 29°52' E 031°02'0 0.0
2018-Jul-09 11:00S 29°52' E 031°02'0 0.0
2018-Jul-09 10:30S 29°52' E 031°02'0 0.0
2018-Jul-09 09:59S 29°52' E 031°02'0 0.0
2018-Jul-09 09:30S 29°52' E 031°02'0 0.0
2018-Jul-09 09:00S 29°52' E 031°02'0 0.0
2018-Jul-09 08:30S 29°52' E 031°02'0 0.0
2018-Jul-09 07:31S 29°52' E 031°02'0 0.0
2018-Jul-09 07:30S 29°52' E 031°02'0 0.0
2018-Jul-09 07:00S 29°52' E 031°02'0 0.0
2018-Jul-09 06:30S 29°52' E 031°02'0 0.0
2018-Jul-09 06:00S 29°52' E 031°02'0 0.0
2018-Jul-09 05:27S 29°52' E 031°02'0 0.0
2018-Jul-09 05:00S 29°52' E 031°02'0 0.0
2018-Jul-09 04:30S 29°52' E 031°02'0 0.0
2018-Jul-09 04:00S 29°52' E 031°02'0 0.0
2018-Jul-09 03:30S 29°52' E 031°02'0 0.0
2018-Jul-09 03:00S 29°52' E 031°02'0 0.0
2018-Jul-09 02:30S 29°52' E 031°02'0 0.3
2018-Jul-09 02:00S 29°52' E 031°02'3 5.2
2018-Jul-09 01:30S 29°51' E 031°05'2 4.9
2018-Jul-09 01:00S 29°49' E 031°06'4 8.0
2018-Jul-09 00:30S 29°47' E 031°10'611.4
2018-Jul-09 00:00S 29°43' E 031°14'611.8
2018-Jul-08 23:30S 29°38' E 031°19'611.9
2018-Jul-08 23:00S 29°34' E 031°24'611.6
2018-Jul-08 22:30S 29°30' E 031°29'  
2018-Jul-05 03:10S 29°25' E 031°35'211.7
2018-Jul-05 03:00S 29°26' E 031°33'612.0
2018-Jul-05 02:30S 29°30' E 031°28'714.8
2018-Jul-05 02:00S 29°36' E 031°22'815.0
2018-Jul-05 01:30S 29°41' E 031°16'814.9
2018-Jul-05 01:00S 29°46' E 031°11'713.6
2018-Jul-05 00:30S 29°51' E 031°05'3 5.5
2018-Jul-05 00:00S 29°52' E 031°02'  
Track history (hours):
 
Tides and Currents Weather Stations Pressure Air Temp Water Temp Dewpoint Dewpoint Depression Visibility Wind Speed Wind Dir Waves Ship Positions

Red Cedar

Last reported at 2018-Jul-14 11:52 UTC. Time now 2018-Jul-22 14:19 UTC.
Position S 33°35' E 018°04'.
Warning: this ship's position is 8 days out of date.

Length 193 m; draft 10.4 m.

Type: Ship (hazmat cat D). MMSI: 538090070.

Date/timePositionNaut miles runAvg speedWind from/ knotsBaromVisibWave heightAir tempDewpointWater temp
2018-Jul-14 11:52S 33°35' E 018°04'512.4
2018-Jul-14 11:29S 33°38' E 018°08'912.3
2018-Jul-14 10:47S 33°45' E 018°14'412.3
2018-Jul-14 10:29S 33°48' E 018°17'611.7
2018-Jul-14 10:00S 33°51' E 018°22'4 8.8
2018-Jul-14 09:30S 33°54' E 018°26'1 1.8
2018-Jul-14 09:00S 33°55' E 018°26'0 0.0
2018-Jul-14 08:30S 33°55' E 018°26'0 0.0
2018-Jul-14 08:00S 33°55' E 018°26'0 0.0
2018-Jul-14 07:30S 33°55' E 018°26'0 0.0
2018-Jul-14 07:00S 33°55' E 018°26'0 0.0
2018-Jul-14 06:30S 33°55' E 018°26'0 0.0
2018-Jul-14 06:00S 33°55' E 018°26'0 0.0
2018-Jul-14 05:30S 33°55' E 018°26'0 0.0
2018-Jul-14 05:00S 33°55' E 018°26'0 0.0
2018-Jul-14 04:30S 33°55' E 018°26'0 0.0
2018-Jul-14 04:00S 33°55' E 018°26'0 0.0
2018-Jul-14 03:30S 33°55' E 018°26'0 0.0
2018-Jul-14 03:00S 33°55' E 018°26'0 0.0
2018-Jul-14 02:30S 33°55' E 018°26'0 0.0
2018-Jul-14 02:00S 33°55' E 018°26'0 0.0
2018-Jul-14 01:30S 33°55' E 018°26'0 0.0
2018-Jul-14 01:00S 33°55' E 018°26'0 0.0
2018-Jul-14 00:30S 33°55' E 018°26'0 0.0
2018-Jul-14 00:00S 33°55' E 018°26'0 0.0
2018-Jul-13 23:30S 33°55' E 018°26'0 0.0
2018-Jul-13 23:00S 33°55' E 018°26'0 0.0
2018-Jul-13 22:30S 33°55' E 018°26'0 0.0
2018-Jul-13 22:00S 33°55' E 018°26'0 0.0
2018-Jul-13 21:27S 33°55' E 018°26'0 0.0
2018-Jul-13 21:00S 33°55' E 018°26'0 0.0
2018-Jul-13 20:30S 33°55' E 018°26'0 0.0
2018-Jul-13 20:00S 33°55' E 018°26'0 0.0
2018-Jul-13 19:30S 33°55' E 018°26'0 0.0
2018-Jul-13 19:00S 33°55' E 018°26'0 0.0
2018-Jul-13 18:30S 33°55' E 018°26'0 0.0
2018-Jul-13 18:00S 33°55' E 018°26'0 0.0
2018-Jul-13 17:30S 33°55' E 018°26'0 0.0
2018-Jul-13 17:00S 33°55' E 018°26'0 0.0
2018-Jul-13 16:29S 33°55' E 018°26'1 1.7
2018-Jul-13 16:00S 33°54' E 018°26'2 3.7
2018-Jul-13 15:30S 33°53' E 018°25'2 4.2
2018-Jul-13 15:00S 33°51' E 018°25'0 0.1
2018-Jul-13 14:00S 33°51' E 018°25'0 0.0
2018-Jul-13 13:30S 33°51' E 018°25'0 0.1
2018-Jul-13 13:00S 33°51' E 018°25'0 0.0
2018-Jul-13 12:30S 33°51' E 018°25'0 0.1
2018-Jul-13 12:00S 33°51' E 018°25'0 0.0
2018-Jul-13 11:30S 33°51' E 018°25'0 0.0
2018-Jul-13 11:00S 33°51' E 018°25'0 0.0
2018-Jul-13 10:30S 33°51' E 018°25'0 0.0
2018-Jul-13 10:00S 33°51' E 018°25'0 0.0
2018-Jul-13 09:30S 33°51' E 018°25'0 0.1
2018-Jul-13 09:00S 33°51' E 018°25'0 0.0
2018-Jul-13 08:30S 33°51' E 018°25'0 0.0
2018-Jul-13 08:00S 33°51' E 018°25'0 0.0
2018-Jul-13 07:31S 33°51' E 018°25'0 0.0
2018-Jul-13 07:00S 33°51' E 018°25'0 0.0
2018-Jul-13 06:30S 33°51' E 018°25'0 0.0
2018-Jul-13 06:00S 33°51' E 018°25'0 0.0
2018-Jul-13 05:30S 33°51' E 018°25'0 0.0
2018-Jul-13 05:00S 33°51' E 018°25'0 0.1
2018-Jul-13 04:30S 33°51' E 018°25'1 1.4
2018-Jul-13 04:00S 33°51' E 018°25'8 8.9
2018-Jul-13 03:04S 33°57' E 018°18'110.7
2018-Jul-13 02:56S 33°58' E 018°17'410.3
2018-Jul-13 02:30S 34°02' E 018°15'5 9.9
2018-Jul-13 02:00S 34°07' E 018°14'510.0
2018-Jul-13 01:30S 34°12' E 018°14'510.6
2018-Jul-13 01:01S 34°18' E 018°14'710.7
2018-Jul-13 00:24S 34°24' E 018°17'4 9.9
2018-Jul-13 00:00S 34°27' E 018°20'5 9.1
2018-Jul-12 23:29S 34°28' E 018°25'5 9.2
2018-Jul-12 22:59S 34°32' E 018°29'5 9.3
2018-Jul-12 22:29S 34°35' E 018°34'4 9.3
2018-Jul-12 22:00S 34°37' E 018°38'5 8.9
2018-Jul-12 21:30S 34°38' E 018°43'5 8.8
2018-Jul-12 20:58S 34°40' E 018°49'5 8.9
2018-Jul-12 20:22S 34°42' E 018°55'  
2018-Jul-10 11:37S 30°12' E 030°58'1 8.6
2018-Jul-10 11:30S 30°12' E 030°60'2 4.3
2018-Jul-10 11:01S 30°10' E 030°60'714.2
2018-Jul-10 10:30S 30°04' E 031°03'714.7
2018-Jul-10 10:01S 29°57' E 031°07'611.9
2018-Jul-10 09:29S 29°51' E 031°06'3 6.4
2018-Jul-10 09:00S 29°53' E 031°02'0 0.5
2018-Jul-10 08:30S 29°52' E 031°02'0 0.0
2018-Jul-10 07:31S 29°52' E 031°02'0 0.0
2018-Jul-10 07:30S 29°52' E 031°02'0 0.0
2018-Jul-10 06:58S 29°52' E 031°02'0 0.0
2018-Jul-10 06:30S 29°52' E 031°02'0 0.0
2018-Jul-10 06:00S 29°52' E 031°02'0 0.0
2018-Jul-10 05:30S 29°52' E 031°02'0 0.0
2018-Jul-10 05:01S 29°52' E 031°02'0 0.0
2018-Jul-10 04:28S 29°52' E 031°02'0 0.0
2018-Jul-10 04:00S 29°52' E 031°02'0 0.0
2018-Jul-10 03:30S 29°52' E 031°02'0 0.0
2018-Jul-10 03:00S 29°52' E 031°02'0 0.0
2018-Jul-10 02:30S 29°52' E 031°02'0 0.0
2018-Jul-10 02:00S 29°52' E 031°02'0 0.0
2018-Jul-10 01:30S 29°52' E 031°02'0 0.0
2018-Jul-10 00:58S 29°52' E 031°02'0 0.0
2018-Jul-10 00:30S 29°52' E 031°02'0 0.0
2018-Jul-10 00:01S 29°52' E 031°02'0 0.0
2018-Jul-09 23:30S 29°52' E 031°02'0 0.0
2018-Jul-09 22:58S 29°52' E 031°02'0 0.0
2018-Jul-09 22:30S 29°52' E 031°02'0 0.0
2018-Jul-09 22:00S 29°52' E 031°02'0 0.0
2018-Jul-09 21:30S 29°52' E 031°02'0 0.0
2018-Jul-09 21:01S 29°52' E 031°02'0 0.0
2018-Jul-09 20:29S 29°52' E 031°02'0 0.0
2018-Jul-09 20:00S 29°52' E 031°02'0 0.0
2018-Jul-09 19:30S 29°52' E 031°02'0 0.0
2018-Jul-09 19:00S 29°52' E 031°02'0 0.0
2018-Jul-09 18:30S 29°52' E 031°02'0 0.0
2018-Jul-09 18:00S 29°52' E 031°02'0 0.0
2018-Jul-09 17:30S 29°52' E 031°02'0 0.0
2018-Jul-09 17:00S 29°52' E 031°02'0 0.0
2018-Jul-09 16:30S 29°52' E 031°02'0 0.0
2018-Jul-09 16:01S 29°52' E 031°02'0 0.0
2018-Jul-09 15:30S 29°52' E 031°02'0 0.0
2018-Jul-09 14:59S 29°52' E 031°02'0 0.0
2018-Jul-09 14:30S 29°52' E 031°02'0 0.0
2018-Jul-09 14:00S 29°52' E 031°02'0 0.0
2018-Jul-09 13:30S 29°52' E 031°02'0 0.0
2018-Jul-09 13:00S 29°52' E 031°02'0 0.0
2018-Jul-09 12:30S 29°52' E 031°02'0 0.0
2018-Jul-09 12:00S 29°52' E 031°02'0 0.0
2018-Jul-09 11:30S 29°52' E 031°02'0 0.0
2018-Jul-09 11:00S 29°52' E 031°02'0 0.0
2018-Jul-09 10:30S 29°52' E 031°02'0 0.0
2018-Jul-09 09:59S 29°52' E 031°02'0 0.0
2018-Jul-09 09:30S 29°52' E 031°02'0 0.0
2018-Jul-09 09:00S 29°52' E 031°02'0 0.0
2018-Jul-09 08:30S 29°52' E 031°02'0 0.0
2018-Jul-09 07:31S 29°52' E 031°02'0 0.0
2018-Jul-09 07:30S 29°52' E 031°02'0 0.0
2018-Jul-09 07:00S 29°52' E 031°02'0 0.0
2018-Jul-09 06:30S 29°52' E 031°02'0 0.0
2018-Jul-09 06:00S 29°52' E 031°02'0 0.0
2018-Jul-09 05:27S 29°52' E 031°02'0 0.0
2018-Jul-09 05:00S 29°52' E 031°02'0 0.0
2018-Jul-09 04:30S 29°52' E 031°02'0 0.0
2018-Jul-09 04:00S 29°52' E 031°02'0 0.0
2018-Jul-09 03:30S 29°52' E 031°02'0 0.0
2018-Jul-09 03:00S 29°52' E 031°02'0 0.0
2018-Jul-09 02:30S 29°52' E 031°02'0 0.3
2018-Jul-09 02:00S 29°52' E 031°02'3 5.2
2018-Jul-09 01:30S 29°51' E 031°05'2 4.9
2018-Jul-09 01:00S 29°49' E 031°06'4 8.0
2018-Jul-09 00:30S 29°47' E 031°10'611.4
2018-Jul-09 00:00S 29°43' E 031°14'611.8
2018-Jul-08 23:30S 29°38' E 031°19'611.9
2018-Jul-08 23:00S 29°34' E 031°24'611.6
2018-Jul-08 22:30S 29°30' E 031°29'  
2018-Jul-05 03:10S 29°25' E 031°35'211.7
2018-Jul-05 03:00S 29°26' E 031°33'612.0
2018-Jul-05 02:30S 29°30' E 031°28'714.8
2018-Jul-05 02:00S 29°36' E 031°22'815.0
2018-Jul-05 01:30S 29°41' E 031°16'814.9
2018-Jul-05 01:00S 29°46' E 031°11'713.6
2018-Jul-05 00:30S 29°51' E 031°05'3 5.5
2018-Jul-05 00:00S 29°52' E 031°02'  

Dump ship's entire track history